createdAt,value
2018-12-22T00:01:41.166Z,10.83
2018-12-22T00:04:09.703Z,8.77
2018-12-22T00:06:38.072Z,8.97
2018-12-22T00:09:06.623Z,8.87
2018-12-22T00:11:34.972Z,10.73
2018-12-22T00:14:03.422Z,10.53
2018-12-22T00:16:31.760Z,6.13
2018-12-22T00:19:00.051Z,6.47
2018-12-22T00:21:28.398Z,8.77
2018-12-22T00:23:56.719Z,9.83
2018-12-22T00:26:25.071Z,9.73
2018-12-22T00:28:53.385Z,5.27
2018-12-22T00:31:21.720Z,5.43
2018-12-22T00:33:50.034Z,6.57
2018-12-22T00:36:18.411Z,4.00
2018-12-22T00:38:46.755Z,5.43
2018-12-22T00:41:15.078Z,7.53
2018-12-22T00:43:43.387Z,8.23
2018-12-22T00:46:11.734Z,10.90
2018-12-22T00:48:40.088Z,7.57
2018-12-22T00:51:08.420Z,6.77
2018-12-22T00:53:36.775Z,2.40
2018-12-22T00:56:05.110Z,3.50
2018-12-22T00:58:33.447Z,3.70
2018-12-22T01:01:01.792Z,6.03
2018-12-22T01:03:30.091Z,6.60
2018-12-22T01:05:58.468Z,5.90
2018-12-22T01:08:26.814Z,8.03
2018-12-22T01:10:55.174Z,6.93
2018-12-22T01:13:23.530Z,9.67
2018-12-22T01:15:51.893Z,5.87
2018-12-22T01:18:20.216Z,4.10
2018-12-22T01:20:48.559Z,4.87
2018-12-22T01:23:16.876Z,3.97
2018-12-22T01:25:45.211Z,3.23
2018-12-22T01:28:13.531Z,3.90
2018-12-22T01:30:41.879Z,5.90
2018-12-22T01:33:10.202Z,3.50
2018-12-22T01:35:38.551Z,6.10
2018-12-22T01:38:06.885Z,4.77
2018-12-22T01:40:35.285Z,3.97
2018-12-22T01:43:03.694Z,9.10
2018-12-22T01:45:32.010Z,4.20
2018-12-22T01:48:00.322Z,4.47
2018-12-22T01:50:28.655Z,6.60
2018-12-22T01:52:57.010Z,5.63
2018-12-22T01:55:25.323Z,7.63
2018-12-22T01:57:53.659Z,6.83
2018-12-22T02:00:22.135Z,4.63
2018-12-22T02:02:50.467Z,6.67
2018-12-22T02:05:18.866Z,14.17
2018-12-22T02:07:47.275Z,2.60
2018-12-22T02:10:15.604Z,6.20
2018-12-22T02:12:43.955Z,4.53
2018-12-22T02:15:12.286Z,7.13
2018-12-22T02:17:40.650Z,6.40
2018-12-22T02:20:08.979Z,6.33
2018-12-22T02:22:37.418Z,2.90
2018-12-22T02:25:05.855Z,10.03
2018-12-22T02:27:34.203Z,6.20
2018-12-22T02:30:02.591Z,5.57
2018-12-22T02:32:30.929Z,10.27
2018-12-22T02:34:59.252Z,4.87
2018-12-22T02:37:27.644Z,7.67
2018-12-22T02:39:55.976Z,9.63
2018-12-22T02:42:24.322Z,5.23
2018-12-22T02:44:52.691Z,5.53
2018-12-22T02:47:21.018Z,6.27
2018-12-22T02:49:49.375Z,15.63
2018-12-22T02:52:17.698Z,10.90
2018-12-22T02:54:46.030Z,7.47
2018-12-22T02:57:14.345Z,13.87
2018-12-22T02:59:42.681Z,12.07
2018-12-22T03:02:11.021Z,8.40
2018-12-22T03:04:39.340Z,12.10
2018-12-22T03:07:07.723Z,15.70
2018-12-22T03:09:36.092Z,14.13
2018-12-22T03:12:04.568Z,10.57
2018-12-22T03:14:32.947Z,11.97
2018-12-22T03:17:01.271Z,8.03
2018-12-22T03:19:29.641Z,13.63
2018-12-22T03:21:58.029Z,10.50
2018-12-22T03:24:26.398Z,9.00
2018-12-22T03:26:54.784Z,5.17
2018-12-22T03:29:23.146Z,5.57
2018-12-22T03:31:51.517Z,14.33
2018-12-22T03:34:19.889Z,8.30
2018-12-22T03:36:48.251Z,4.37
2018-12-22T03:39:16.606Z,4.80
2018-12-22T03:41:44.952Z,10.27
2018-12-22T03:44:13.324Z,12.20
2018-12-22T03:46:41.680Z,10.83
2018-12-22T03:49:10.076Z,6.90
2018-12-22T03:51:38.422Z,8.93
2018-12-22T03:54:06.748Z,5.83
2018-12-22T03:56:35.119Z,6.60
2018-12-22T03:59:03.554Z,9.60
2018-12-22T04:01:32.169Z,10.23
2018-12-22T04:04:00.512Z,11.50
2018-12-22T04:06:28.997Z,10.13
2018-12-22T04:08:57.354Z,11.07
2018-12-22T04:11:25.700Z,8.63
2018-12-22T04:13:54.073Z,5.97
2018-12-22T04:16:22.432Z,4.60
2018-12-22T04:18:50.809Z,7.37
2018-12-22T04:21:19.279Z,7.93
2018-12-22T04:23:47.644Z,9.13
2018-12-22T04:26:16.012Z,5.70
2018-12-22T04:28:44.327Z,10.70
2018-12-22T04:31:12.687Z,8.37
2018-12-22T04:33:41.045Z,8.67
2018-12-22T04:36:09.427Z,8.13
2018-12-22T04:38:37.786Z,11.67
2018-12-22T04:41:06.145Z,6.43
2018-12-22T04:43:34.481Z,10.30
2018-12-22T04:46:02.857Z,9.20
2018-12-22T04:48:31.230Z,8.87
2018-12-22T04:50:59.564Z,8.10
2018-12-22T04:53:28.028Z,9.27
2018-12-22T04:55:56.367Z,7.03
2018-12-22T04:58:24.745Z,9.10
2018-12-22T05:00:53.094Z,7.00
2018-12-22T05:03:21.506Z,7.70
2018-12-22T05:05:49.866Z,7.40
2018-12-22T05:08:18.207Z,12.47
2018-12-22T05:10:46.567Z,10.77
2018-12-22T05:13:15.055Z,8.73
2018-12-22T05:15:43.444Z,13.10
2018-12-22T05:18:11.768Z,11.00
2018-12-22T05:20:40.244Z,14.20
2018-12-22T05:23:08.587Z,11.87
2018-12-22T05:25:36.930Z,10.97
2018-12-22T05:28:05.303Z,12.63
2018-12-22T05:30:33.819Z,10.73
2018-12-22T05:33:02.144Z,14.13
2018-12-22T05:35:30.512Z,12.47
2018-12-22T05:37:58.853Z,11.97
2018-12-22T05:40:27.352Z,11.17
2018-12-22T05:42:55.709Z,10.30
2018-12-22T05:45:24.044Z,9.93
2018-12-22T05:47:52.424Z,12.73
2018-12-22T05:50:20.772Z,11.03
2018-12-22T05:52:49.148Z,8.20
2018-12-22T05:55:17.483Z,12.40
2018-12-22T05:57:45.843Z,13.60
2018-12-22T06:00:14.199Z,11.77
2018-12-22T06:02:42.567Z,12.37
2018-12-22T06:05:11.528Z,11.53
2018-12-22T06:07:39.878Z,15.33
2018-12-22T06:10:08.480Z,15.47
2018-12-22T06:12:36.935Z,13.27
2018-12-22T06:15:06.011Z,17.83
2018-12-22T06:17:34.364Z,17.40
2018-12-22T06:20:02.731Z,14.90
2018-12-22T06:22:31.084Z,11.43
2018-12-22T06:24:59.431Z,11.93
2018-12-22T06:27:27.805Z,14.93
2018-12-22T06:29:56.156Z,11.27
2018-12-22T06:32:24.527Z,12.70
2018-12-22T06:34:52.868Z,14.97
2018-12-22T06:37:21.252Z,15.27
2018-12-22T06:39:49.623Z,11.13
2018-12-22T06:42:17.987Z,17.43
2018-12-22T06:44:46.349Z,13.40
2018-12-22T06:47:14.752Z,16.93
2018-12-22T06:49:43.092Z,14.87
2018-12-22T06:52:11.480Z,15.50
2018-12-22T06:54:39.832Z,16.20
2018-12-22T06:57:08.208Z,16.73
2018-12-22T06:59:36.563Z,14.90
2018-12-22T07:02:05.118Z,15.97
2018-12-22T07:04:33.508Z,13.53
2018-12-22T07:07:01.887Z,14.10
2018-12-22T07:09:30.267Z,12.87
2018-12-22T07:11:58.615Z,24.87
2018-12-22T07:14:26.995Z,22.90
2018-12-22T07:16:55.471Z,14.50
2018-12-22T07:19:23.925Z,16.93
2018-12-22T07:21:52.293Z,20.77
2018-12-22T07:24:21.054Z,20.37
2018-12-22T07:26:49.440Z,15.27
2018-12-22T07:29:17.801Z,21.13
2018-12-22T07:31:46.139Z,20.87
2018-12-22T07:34:14.514Z,17.13
2018-12-22T07:36:42.969Z,20.37
2018-12-22T07:39:11.374Z,23.57
2018-12-22T07:41:39.736Z,19.47
2018-12-22T07:44:08.106Z,22.83
2018-12-22T07:46:36.553Z,21.70
2018-12-22T07:49:04.908Z,18.83
2018-12-22T07:51:33.291Z,33.73
2018-12-22T07:54:01.683Z,14.87
2018-12-22T07:56:30.088Z,19.67
2018-12-22T07:58:58.455Z,19.20
2018-12-22T08:01:26.795Z,20.30
2018-12-22T08:03:55.182Z,21.70
2018-12-22T08:06:23.550Z,18.70
2018-12-22T08:08:51.907Z,23.37
2018-12-22T08:11:20.270Z,23.73
2018-12-22T08:13:48.685Z,20.40
2018-12-22T08:16:17.039Z,26.27
2018-12-22T08:18:45.435Z,27.23
2018-12-22T08:21:13.812Z,35.47
2018-12-22T08:23:42.172Z,19.83
2018-12-22T08:26:10.536Z,29.40
2018-12-22T08:28:38.891Z,28.00
2018-12-22T08:31:07.398Z,23.20
2018-12-22T08:33:35.784Z,23.83
2018-12-22T08:36:04.245Z,26.20
2018-12-22T08:38:32.624Z,23.70
2018-12-22T08:41:01.000Z,20.73
2018-12-22T08:43:29.355Z,26.17
2018-12-22T08:45:57.720Z,21.57
2018-12-22T08:48:26.173Z,25.87
2018-12-22T08:50:54.540Z,31.77
2018-12-22T08:53:22.909Z,27.90
2018-12-22T08:55:51.371Z,25.77
2018-12-22T08:58:19.728Z,30.23
2018-12-22T09:00:52.221Z,25.37
2018-12-22T09:03:18.548Z,27.40
2018-12-22T09:05:46.935Z,30.83
2018-12-22T09:08:15.332Z,25.60
2018-12-22T09:10:43.725Z,27.20
2018-12-22T09:13:20.692Z,26.03
2018-12-22T09:15:42.543Z,18.70
2018-12-22T09:18:10.937Z,29.47
2018-12-22T09:20:39.280Z,44.47
2018-12-22T09:23:07.653Z,31.87
2018-12-22T09:25:36.028Z,29.20
2018-12-22T09:28:04.391Z,32.63
2018-12-22T09:30:32.780Z,29.87
2018-12-22T09:33:01.216Z,30.90
2018-12-22T09:35:29.592Z,33.40
2018-12-22T09:37:58.094Z,27.60
2018-12-22T09:40:26.530Z,31.77
2018-12-22T09:42:54.926Z,22.33
2018-12-22T09:45:23.371Z,31.23
2018-12-22T09:47:51.872Z,28.70
2018-12-22T09:50:20.200Z,30.33
2018-12-22T09:52:48.552Z,35.20
2018-12-22T09:55:16.954Z,30.20
2018-12-22T09:57:45.340Z,37.70
2018-12-22T10:00:14.072Z,34.50
2018-12-22T10:02:42.440Z,33.57
2018-12-22T10:05:10.815Z,33.87
2018-12-22T10:07:39.169Z,26.67
2018-12-22T10:10:12.110Z,39.80
2018-12-22T10:12:40.547Z,32.47
2018-12-22T10:15:09.170Z,40.03
2018-12-22T10:17:37.594Z,39.17
2018-12-22T10:20:07.285Z,33.60
2018-12-22T10:22:35.631Z,36.13
2018-12-22T10:25:05.784Z,40.57
2018-12-22T10:27:34.168Z,36.57
2018-12-22T10:30:02.682Z,36.30
2018-12-22T10:32:31.036Z,35.67
2018-12-22T10:34:59.437Z,37.17
2018-12-22T10:37:27.823Z,39.37
2018-12-22T10:39:56.157Z,37.40
2018-12-22T10:42:24.553Z,38.37
2018-12-22T10:44:52.889Z,34.00
2018-12-22T10:47:21.261Z,25.73
2018-12-22T10:49:49.654Z,36.20
2018-12-22T10:52:18.068Z,35.17
2018-12-22T10:54:46.451Z,36.73
2018-12-22T10:57:14.827Z,29.67
2018-12-22T10:59:43.201Z,27.37
2018-12-22T11:02:11.544Z,36.50
2018-12-22T11:04:40.041Z,26.23
2018-12-22T11:07:08.399Z,36.47
2018-12-22T11:09:36.867Z,35.63
2018-12-22T11:12:05.212Z,33.37
2018-12-22T11:14:33.591Z,32.63
2018-12-22T11:17:01.971Z,30.57
2018-12-22T11:19:30.363Z,37.27
2018-12-22T11:21:58.791Z,39.83
2018-12-22T11:24:27.148Z,28.50
2018-12-22T11:26:55.507Z,37.67
2018-12-22T11:29:23.883Z,36.23
2018-12-22T11:31:52.239Z,34.00
2018-12-22T11:34:20.592Z,42.00
2018-12-22T11:36:48.960Z,42.27
2018-12-22T11:39:17.431Z,35.67
2018-12-22T11:41:45.773Z,41.40
2018-12-22T11:44:14.168Z,37.73
2018-12-22T11:46:42.572Z,37.00
2018-12-22T11:49:34.587Z,35.20
2018-12-22T11:52:02.963Z,35.37
2018-12-22T11:54:31.385Z,31.77
2018-12-22T11:56:59.847Z,32.13
2018-12-22T11:59:28.215Z,30.40
2018-12-22T12:01:56.680Z,34.80
2018-12-22T12:04:25.054Z,34.37
2018-12-22T12:06:53.582Z,29.37
2018-12-22T12:09:22.006Z,30.93
2018-12-22T12:11:50.416Z,33.43
2018-12-22T12:14:18.794Z,28.47
2018-12-22T12:17:10.840Z,31.63
2018-12-22T12:19:39.436Z,28.97
2018-12-22T12:22:09.040Z,30.93
2018-12-22T12:24:38.549Z,28.73
2018-12-22T12:27:09.079Z,35.43
2018-12-22T12:29:37.459Z,27.93
2018-12-22T12:32:05.909Z,27.53
2018-12-22T12:34:34.319Z,31.50
2018-12-22T12:37:02.659Z,30.67
2018-12-22T12:39:31.092Z,34.00
2018-12-22T12:41:59.469Z,34.07
2018-12-22T12:44:27.823Z,29.67
2018-12-22T12:46:56.208Z,37.33
2018-12-22T12:49:24.862Z,28.73
2018-12-22T12:51:53.307Z,34.47
2018-12-22T12:54:22.395Z,31.43
2018-12-22T12:56:53.293Z,29.73
2018-12-22T12:59:22.121Z,36.60
2018-12-22T13:01:50.472Z,27.87
2018-12-22T13:04:18.940Z,25.77
2018-12-22T13:06:47.292Z,31.00
2018-12-22T13:09:15.965Z,32.77
2018-12-22T13:11:44.562Z,34.00
2018-12-22T13:14:15.851Z,32.83
2018-12-22T13:16:44.368Z,33.67
2018-12-22T13:19:12.906Z,33.87
2018-12-22T13:21:43.355Z,32.07
2018-12-22T13:24:11.787Z,35.53
2018-12-22T13:26:40.120Z,37.60
2018-12-22T13:29:08.640Z,29.57
2018-12-22T13:31:37.052Z,34.40
2018-12-22T13:34:05.459Z,30.57
2018-12-22T13:36:34.816Z,33.17
2018-12-22T13:39:27.202Z,29.13
2018-12-22T13:41:55.900Z,42.77
2018-12-22T13:44:24.316Z,35.53
2018-12-22T13:46:52.915Z,38.43
2018-12-22T13:49:21.593Z,36.27
2018-12-22T13:51:50.256Z,40.80
2018-12-22T13:54:22.680Z,34.77
2018-12-22T13:56:51.076Z,44.40
2018-12-22T13:59:19.504Z,36.70
2018-12-22T14:01:54.307Z,36.53
2018-12-22T14:04:23.186Z,45.27
2018-12-22T14:06:51.819Z,39.23
2018-12-22T14:09:20.360Z,36.20
2018-12-22T14:11:48.907Z,51.10
2018-12-22T14:14:21.992Z,48.77
2018-12-22T14:16:57.154Z,45.27
2018-12-22T14:19:25.658Z,45.60
2018-12-22T14:21:54.528Z,49.00
2018-12-22T14:24:35.075Z,57.03
2018-12-22T14:27:03.558Z,54.57
2018-12-22T14:29:32.004Z,59.00
2018-12-22T14:32:00.378Z,56.23
2018-12-22T14:34:34.024Z,50.07
2018-12-22T14:37:02.453Z,57.77
2018-12-22T14:39:30.940Z,58.40
2018-12-22T14:41:59.379Z,60.70
2018-12-22T14:44:27.787Z,46.07
2018-12-22T14:46:56.280Z,56.47
2018-12-22T14:49:24.775Z,63.53
2018-12-22T14:51:53.182Z,51.37
2018-12-22T14:54:21.660Z,64.90
2018-12-22T14:56:50.028Z,55.30
2018-12-22T14:59:20.453Z,69.27
2018-12-22T15:01:52.431Z,79.27
2018-12-22T15:04:21.228Z,79.63
2018-12-22T15:06:49.594Z,75.80
2018-12-22T15:09:17.988Z,93.53
2018-12-22T15:11:46.357Z,83.97
2018-12-22T15:14:14.752Z,91.90
2018-12-22T15:16:43.113Z,77.40
2018-12-22T15:19:11.480Z,96.53
2018-12-22T15:21:39.859Z,91.97
2018-12-22T15:24:09.686Z,117.97
2018-12-22T15:26:38.047Z,124.03
2018-12-22T15:29:06.416Z,130.10
2018-12-22T15:31:34.770Z,128.27
2018-12-22T15:34:03.168Z,128.53
2018-12-22T15:36:31.525Z,142.33
2018-12-22T15:38:59.898Z,168.87
2018-12-22T15:41:28.331Z,135.67
2018-12-22T15:43:58.822Z,177.23
2018-12-22T15:46:27.316Z,164.20
2018-12-22T15:48:55.680Z,158.57
2018-12-22T15:51:24.051Z,123.50
2018-12-22T15:53:52.674Z,142.63
2018-12-22T15:56:21.110Z,156.53
2018-12-22T15:58:49.467Z,148.00
2018-12-22T16:01:17.803Z,138.53
2018-12-22T16:03:46.199Z,164.70
2018-12-22T16:06:14.619Z,162.63
2018-12-22T16:08:42.996Z,145.43
2018-12-22T16:11:11.424Z,165.40
2018-12-22T16:13:39.786Z,200.53
2018-12-22T16:16:08.465Z,174.93
2018-12-22T16:18:36.852Z,173.87
2018-12-22T16:21:05.252Z,166.47
2018-12-22T16:23:33.624Z,195.43
2018-12-22T16:26:02.225Z,205.97
2018-12-22T16:28:32.911Z,191.80
2018-12-22T16:31:01.375Z,202.63
2018-12-22T16:33:29.732Z,195.77
2018-12-22T16:35:58.132Z,174.40
2018-12-22T16:38:26.515Z,180.63
2018-12-22T16:40:54.896Z,193.00
2018-12-22T16:43:23.387Z,194.37
2018-12-22T16:45:52.184Z,201.83
2018-12-22T16:48:22.913Z,200.40
2018-12-22T16:50:51.348Z,181.73
2018-12-22T16:53:19.954Z,208.07
2018-12-22T16:55:48.356Z,203.37
2018-12-22T16:58:34.593Z,204.70
2018-12-22T17:01:18.464Z,211.90
2018-12-22T17:03:47.025Z,208.67
2018-12-22T17:06:16.041Z,220.83
2018-12-22T17:08:45.435Z,213.67
2018-12-22T17:11:13.814Z,219.13
2018-12-22T17:13:43.027Z,209.87
2018-12-22T17:16:11.407Z,251.50
2018-12-22T17:18:39.800Z,225.03
2018-12-22T17:21:14.300Z,224.97
2018-12-22T17:23:48.967Z,215.97
2018-12-22T17:26:17.539Z,215.30
2018-12-22T17:28:45.912Z,213.23
2018-12-22T17:31:14.273Z,195.73
2018-12-22T17:33:42.733Z,224.93
2018-12-22T17:36:11.171Z,228.63
2018-12-22T17:38:39.601Z,218.33
2018-12-22T17:41:08.032Z,226.97
2018-12-22T17:43:37.596Z,211.40
2018-12-22T17:46:06.099Z,202.87
2018-12-22T17:48:34.592Z,218.47
2018-12-22T17:51:02.981Z,219.30
2018-12-22T17:53:31.348Z,265.43
2018-12-22T17:55:59.727Z,235.37
2018-12-22T17:58:28.112Z,238.77
2018-12-22T18:00:56.524Z,221.67
2018-12-22T18:03:29.068Z,221.67
2018-12-22T18:05:57.548Z,237.53
2018-12-22T18:08:25.940Z,228.50
2018-12-22T18:10:54.442Z,227.13
2018-12-22T18:13:22.824Z,215.47
2018-12-22T18:15:51.312Z,242.00
2018-12-22T18:18:19.776Z,193.37
2018-12-22T18:20:48.361Z,185.03
2018-12-22T18:23:16.748Z,171.00
2018-12-22T18:25:45.402Z,145.87
2018-12-22T18:28:14.584Z,109.47
2018-12-22T18:30:42.971Z,120.83
2018-12-22T18:33:11.742Z,112.47
2018-12-22T18:35:40.972Z,118.67
2018-12-22T18:38:10.084Z,123.20
2018-12-22T18:40:38.621Z,114.07
2018-12-22T18:43:07.123Z,109.70
2018-12-22T18:45:35.702Z,105.57
2018-12-22T18:48:04.672Z,98.80
2018-12-22T18:50:33.019Z,96.70
2018-12-22T18:53:01.895Z,84.60
2018-12-22T18:55:30.235Z,77.20
2018-12-22T18:58:00.784Z,100.07
2018-12-22T19:00:29.231Z,92.27
2018-12-22T19:02:58.069Z,99.83
2018-12-22T19:05:26.472Z,97.07
2018-12-22T19:07:58.328Z,103.90
2018-12-22T19:10:31.888Z,86.97
2018-12-22T19:13:00.250Z,102.90
2018-12-22T19:15:28.663Z,111.03
2018-12-22T19:17:57.036Z,99.83
2018-12-22T19:20:31.888Z,114.17
2018-12-22T19:23:00.272Z,105.57
2018-12-22T19:25:28.647Z,106.83
2018-12-22T19:27:57.664Z,104.93
2018-12-22T19:30:26.024Z,104.73
2018-12-22T19:32:55.703Z,91.63
2018-12-22T19:35:24.155Z,102.97
2018-12-22T19:37:52.517Z,79.10
2018-12-22T19:40:20.879Z,86.27
2018-12-22T19:42:49.248Z,76.37
2018-12-22T19:45:17.756Z,63.73
2018-12-22T19:47:46.203Z,67.57
2018-12-22T19:50:14.551Z,70.50
2018-12-22T19:52:43.064Z,68.83
2018-12-22T19:55:11.415Z,63.20
2018-12-22T19:57:39.808Z,55.47
2018-12-22T20:00:08.284Z,60.43
2018-12-22T20:02:37.694Z,50.63
2018-12-22T20:05:06.784Z,55.30
2018-12-22T20:07:35.168Z,53.80
2018-12-22T20:10:03.824Z,59.73
2018-12-22T20:12:32.183Z,45.30
2018-12-22T20:15:00.558Z,54.13
2018-12-22T20:17:29.848Z,39.97
2018-12-22T20:19:58.345Z,53.17
2018-12-22T20:22:26.785Z,66.60
2018-12-22T20:24:55.206Z,49.83
2018-12-22T20:27:23.700Z,38.53
2018-12-22T20:29:52.103Z,48.10
2018-12-22T20:32:20.481Z,49.37
2018-12-22T20:34:48.828Z,40.33
2018-12-22T20:37:17.169Z,42.80
2018-12-22T20:39:45.563Z,34.13
2018-12-22T20:42:13.935Z,28.43
2018-12-22T20:44:42.316Z,37.33
2018-12-22T20:47:10.694Z,31.87
2018-12-22T20:49:39.056Z,32.93
2018-12-22T20:52:07.433Z,29.63
2018-12-22T20:54:35.816Z,28.30
2018-12-22T20:57:04.180Z,23.67
2018-12-22T20:59:32.552Z,23.37
2018-12-22T21:02:00.907Z,25.33
2018-12-22T21:04:29.284Z,23.17
2018-12-22T21:06:57.677Z,18.53
2018-12-22T21:09:26.071Z,21.00
2018-12-22T21:11:54.434Z,17.13
2018-12-22T21:14:22.801Z,23.27
2018-12-22T21:16:51.175Z,19.87
2018-12-22T21:19:19.509Z,21.10
2018-12-22T21:21:47.876Z,21.77
2018-12-22T21:24:16.263Z,24.33
2018-12-22T21:26:44.624Z,21.13
2018-12-22T21:29:13.100Z,25.67
2018-12-22T21:31:41.472Z,22.27
2018-12-22T21:34:09.850Z,26.10
2018-12-22T21:36:38.237Z,24.67
2018-12-22T21:39:07.044Z,28.13
2018-12-22T21:41:35.671Z,26.80
2018-12-22T21:44:04.096Z,31.17
2018-12-22T21:46:32.479Z,27.53
2018-12-22T21:49:00.863Z,28.03
2018-12-22T21:51:29.264Z,33.23
2018-12-22T21:53:57.705Z,33.53
2018-12-22T21:56:26.097Z,38.40
2018-12-22T21:58:54.463Z,32.67
2018-12-22T22:01:22.795Z,28.50
2018-12-22T22:03:51.165Z,43.43
2018-12-22T22:06:19.623Z,40.07
2018-12-22T22:08:48.003Z,46.77
2018-12-22T22:11:16.408Z,40.53
2018-12-22T22:13:44.809Z,43.53
2018-12-22T22:16:13.161Z,40.13
2018-12-22T22:18:41.584Z,37.70
2018-12-22T22:21:09.928Z,38.13
2018-12-22T22:23:38.354Z,48.37
2018-12-22T22:26:06.719Z,39.07
2018-12-22T22:28:35.087Z,36.83
2018-12-22T22:31:03.452Z,40.60
2018-12-22T22:33:31.838Z,41.23
2018-12-22T22:36:00.208Z,41.13
2018-12-22T22:38:28.604Z,42.93
2018-12-22T22:40:57.003Z,41.27
2018-12-22T22:43:25.380Z,50.33
2018-12-22T22:45:53.751Z,39.60
2018-12-22T22:48:22.106Z,41.07
2018-12-22T22:50:50.508Z,41.03
2018-12-22T22:53:18.876Z,50.63
2018-12-22T22:55:47.271Z,45.00
2018-12-22T22:58:15.671Z,45.77
2018-12-22T23:00:44.776Z,56.70
2018-12-22T23:03:13.159Z,59.50
2018-12-22T23:05:41.502Z,53.10
2018-12-22T23:08:09.875Z,61.13
2018-12-22T23:10:38.293Z,53.87
2018-12-22T23:13:06.659Z,62.67
2018-12-22T23:15:35.047Z,67.47
2018-12-22T23:18:03.455Z,57.80
2018-12-22T23:20:31.826Z,55.63
2018-12-22T23:23:00.235Z,60.67
2018-12-22T23:25:28.604Z,66.53
2018-12-22T23:27:56.955Z,54.83
2018-12-22T23:30:25.351Z,54.50
2018-12-22T23:32:53.823Z,68.70
2018-12-22T23:35:22.203Z,63.37
2018-12-22T23:37:50.587Z,66.43
2018-12-22T23:40:18.996Z,71.57
2018-12-22T23:42:47.337Z,74.83
2018-12-22T23:45:15.676Z,60.63
2018-12-22T23:47:44.080Z,73.00
2018-12-22T23:50:12.507Z,64.63
2018-12-22T23:52:40.924Z,65.80
2018-12-22T23:55:09.284Z,77.90
2018-12-22T23:57:37.690Z,75.47
